Maggie Valley, NC

6:50 PM EST on January 22, 2017 (GMT -0500)
Cook-mnts Valley Vista | | Change Station

Elev 3878 ft 35.52 °N, 83.11 °W | Updated 35 seconds ago

Rain
Rain
48.4 °F
Feels Like 46 °F
N
5.0
Wind Variable Wind from ESE

Today
High -- | Low -- °F
--% Chance of Precip.
Yesterday
High -- | Low -- °F
Precip. -- in
Pressure 29.28 in
Visibility 10.0 miles
Clouds Mostly Cloudy 3400 ft
Overcast 4600 ft
Windchill 46 °F
Dew Point 48 °F
Humidity 98%
Rainfall 0.09 in
Snow Depth Not available.
7:38 AM 5:50 PM
Waning Crescent, 23% visible
METAR K1A5 222340Z AUTO 26004KT 10SM -RA BKN034 OVC046 12/11 A2928 RMK AO2 P0003 T01240112
Pressure 29.28 in
Visibility 10.0 miles
Clouds Mostly Cloudy 3400 ft
Overcast 4600 ft
Windchill 46 °F
Dew Point 48 °F
Humidity 98%
Rainfall 0.09 in
Snow Depth Not available.
7:38 AM 5:50 PM
Waning Crescent, 23% visible
METAR K1A5 222340Z AUTO 26004KT 10SM -RA BKN034 OVC046 12/11 A2928 RMK AO2 P0003 T01240112

Get Your Daily Forecast Email!

Thanks for signing up!

Be on the lookout for a verification email in your inbox.

You'll start receiving the daily forecast at 8 AM.

×

10-Day Weather Forecast

Almanac

Astronomy

Jan. 22, 2017 Rise Set
Actual Time
Civil Twilight
Nautical Twilight
Astronomical Twilight
Moon
Length of Visible Light
Length of Day
Tomorrow will be .
, % of the Moon is Illuminated

Today's Extremes

State Highs State Lows

Community

WunderPhotos

Upload Photos

1,962,540 photos uploaded!

WunderBlog® & News

Nearby

Air Quality

  Air Quality AQ Index Pollutant
Not available.

Snow Depth

Station Depth Elevation

Earthquake Activity

City Distance Mag. Time & Date
Minimum magnitude displayed is 2.5.

Coastal Water Temperatures

Place Temperature

Stations

Nearby Weather Stations

Station Location Temp. Windchill Dew Point Humidity Wind Precip. Elev Updated Type
                   

Watches & Warnings

There are currently no watches in effect.